East Vandergrift, Pennsylvania
Current Conditions -  °F | °C
As of 11:55 PM on Monday 22 Dec 2014 (Local Time) from KLBE Reporting Station
Scattered Clouds Scattered Clouds  
Wind Chill: 36°   Ceiling: Unl
Heat Index: 41°   Visibility: 10mi
Dew Point: 36°   Wind: 7mph
Humidity: 81%   Direction: 170°S
Pressure: 29.97"   Gusts: 18mph
Location:  40.6°N, 79.56°W
Report Text: KLBE 230455Z AUTO 17006G16KT 10SM FEW021 SCT110 05/02 A2997 RMK AO2
Loading
Personal Weather Stations






























Interactive Weather Map New forecast layout! Learn more

10-Day Weather Forecast

Advertisements
Track Severe Weather on mobile